createdAt,value
2018-06-18T00:00:08.882Z,72.2569
2018-06-18T00:01:14.162Z,72.5079
2018-06-18T00:02:19.036Z,71.7522
2018-06-18T00:03:24.471Z,72.0032
2018-06-18T00:04:30.406Z,72.2569
2018-06-18T00:05:35.587Z,71.2501
2018-06-18T00:06:40.582Z,71.7522
2018-06-18T00:07:45.729Z,71.5012
2018-06-18T00:08:51.162Z,71.2501
2018-06-18T00:09:56.283Z,70.9991
2018-06-18T00:11:01.716Z,70.9991
2018-06-18T00:12:06.294Z,70.83
2018-06-18T00:13:11.404Z,69.9105
2018-06-18T00:14:16.564Z,70.579
2018-06-18T00:15:21.450Z,70.579
2018-06-18T00:16:26.383Z,70.9991
2018-06-18T00:17:31.257Z,72.0032
2018-06-18T00:18:37.349Z,71.5012
2018-06-18T00:19:42.780Z,72.2569
2018-06-18T00:20:48.234Z,71.7522
2018-06-18T00:21:53.746Z,71.5012
2018-06-18T00:22:58.609Z,71.2501
2018-06-18T00:24:03.496Z,70.9991
2018-06-18T00:25:08.631Z,72.0032
2018-06-18T00:26:14.093Z,71.5012
2018-06-18T00:27:19.225Z,72.5079
2018-06-18T00:28:25.012Z,71.5012
2018-06-18T00:29:30.172Z,72.0032
2018-06-18T00:30:36.121Z,72.2569
2018-06-18T00:31:41.570Z,72.0032
2018-06-18T00:32:46.731Z,72.2569
2018-06-18T00:33:52.138Z,71.2501
2018-06-18T00:34:57.294Z,71.5012
2018-06-18T00:36:02.460Z,72.0032
2018-06-18T00:37:07.569Z,71.2501
2018-06-18T00:38:12.713Z,71.5012
2018-06-18T00:39:18.145Z,72.0032
2018-06-18T00:40:23.825Z,72.0032
2018-06-18T00:41:28.698Z,72.0032
2018-06-18T00:42:33.956Z,72.0032
2018-06-18T00:43:39.108Z,70.9991
2018-06-18T00:44:44.538Z,71.7522
2018-06-18T00:45:50.034Z,71.2501
2018-06-18T00:46:55.467Z,70.83
2018-06-18T00:48:00.893Z,72.0032
2018-06-18T00:49:06.687Z,70.9991
2018-06-18T00:50:11.556Z,72.2569
2018-06-18T00:51:16.988Z,71.7522
2018-06-18T00:52:22.771Z,72.2569
2018-06-18T00:53:28.203Z,72.2569
2018-06-18T00:54:33.884Z,72.2569
2018-06-18T00:55:39.349Z,72.2569
2018-06-18T00:56:44.503Z,72.5079
2018-06-18T00:57:49.731Z,72.0032
2018-06-18T00:58:54.880Z,72.0032
2018-06-18T01:00:00.316Z,71.5012
2018-06-18T01:01:05.740Z,72.0032
2018-06-18T01:02:10.891Z,71.7522
2018-06-18T01:03:15.525Z,72.5079
2018-06-18T01:04:20.359Z,71.7522
2018-06-18T01:05:25.236Z,71.2501
2018-06-18T01:06:31.393Z,72.2569
2018-06-18T01:07:36.249Z,72.0032
2018-06-18T01:08:41.404Z,70.9991
2018-06-18T01:09:46.481Z,72.2569
2018-06-18T01:10:51.654Z,72.0032
2018-06-18T01:11:56.808Z,71.7522
2018-06-18T01:13:02.034Z,71.5012
2018-06-18T01:14:06.369Z,71.5012
2018-06-18T01:15:11.520Z,72.6743
2018-06-18T01:16:16.091Z,72.2569
2018-06-18T01:17:21.291Z,71.2501
2018-06-18T01:18:26.774Z,71.5012
2018-06-18T01:19:31.366Z,71.5012
2018-06-18T01:20:36.233Z,71.5012
2018-06-18T01:21:41.668Z,71.7522
2018-06-18T01:22:47.115Z,72.2569
2018-06-18T01:23:52.275Z,72.5079
2018-06-18T01:24:57.956Z,71.7522
2018-06-18T01:26:02.834Z,72.0032
2018-06-18T01:27:08.263Z,72.5079
2018-06-18T01:28:13.494Z,72.9254
2018-06-18T01:29:18.676Z,73.179
2018-06-18T01:30:23.554Z,73.179
2018-06-18T01:31:28.831Z,72.6743
2018-06-18T01:32:33.993Z,71.5012
2018-06-18T01:33:39.775Z,72.0032
2018-06-18T01:34:45.208Z,73.179
2018-06-18T01:35:50.646Z,72.0032
2018-06-18T01:36:56.074Z,72.9254
2018-06-18T01:38:01.519Z,72.6743
2018-06-18T01:39:05.942Z,73.179
2018-06-18T01:40:11.604Z,73.4301
2018-06-18T01:41:17.039Z,73.179
2018-06-18T01:42:22.471Z,72.6743
2018-06-18T01:43:27.799Z,73.4301
2018-06-18T01:44:32.940Z,72.9254
2018-06-18T01:45:38.493Z,73.179
2018-06-18T01:46:43.077Z,72.9254
2018-06-18T01:47:48.240Z,73.4301
2018-06-18T01:48:53.508Z,73.4301
2018-06-18T01:49:58.957Z,74.1831
2018-06-18T01:51:02.982Z,73.9321
2018-06-18T01:52:07.813Z,74.1831
2018-06-18T01:53:12.407Z,73.9321
2018-06-18T01:54:17.561Z,73.9321
2018-06-18T01:55:23.113Z,73.9321
2018-06-18T01:56:28.543Z,75.1053
2018-06-18T01:57:33.708Z,74.1831
2018-06-18T01:58:38.583Z,74.4341
2018-06-18T01:59:43.732Z,74.9388
2018-06-18T02:00:49.151Z,74.6878
2018-06-18T02:01:54.321Z,73.9321
2018-06-18T02:02:59.474Z,74.1831
2018-06-18T02:04:04.693Z,74.6878
2018-06-18T02:05:10.123Z,74.9388
2018-06-18T02:06:15.308Z,73.9321
2018-06-18T02:07:20.522Z,74.1831
2018-06-18T02:08:25.666Z,75.1053
2018-06-18T02:09:31.651Z,74.6878
2018-06-18T02:10:37.108Z,74.6878
2018-06-18T02:11:42.553Z,74.1831
2018-06-18T02:12:47.389Z,74.1831
2018-06-18T02:13:52.543Z,73.9321
2018-06-18T02:14:57.423Z,73.9321
2018-06-18T02:16:02.851Z,73.179
2018-06-18T02:17:07.758Z,73.6811
2018-06-18T02:18:12.624Z,75.1053
2018-06-18T02:19:17.375Z,74.4341
2018-06-18T02:20:22.562Z,74.1831
2018-06-18T02:21:27.954Z,74.1831
2018-06-18T02:22:33.109Z,74.4341
2018-06-18T02:23:38.251Z,74.9388
2018-06-18T02:24:44.143Z,75.61
2018-06-18T02:25:49.023Z,75.3589
2018-06-18T02:26:54.185Z,75.861
2018-06-18T02:27:59.751Z,75.61
2018-06-18T02:29:04.347Z,76.363
2018-06-18T02:30:09.494Z,75.3589
2018-06-18T02:31:15.272Z,74.4341
2018-06-18T02:32:19.870Z,74.4341
2018-06-18T02:33:26.277Z,75.1053
2018-06-18T02:34:31.721Z,73.9321
2018-06-18T02:35:36.876Z,74.9388
2018-06-18T02:36:42.705Z,74.4341
2018-06-18T02:37:47.868Z,74.6878
2018-06-18T02:38:53.325Z,74.9388
2018-06-18T02:39:58.889Z,74.6878
2018-06-18T02:41:03.210Z,74.9388
2018-06-18T02:42:08.357Z,74.9388
2018-06-18T02:43:14.194Z,76.112
2018-06-18T02:44:19.644Z,76.6167
2018-06-18T02:45:25.630Z,75.61
2018-06-18T02:46:30.212Z,75.1053
2018-06-18T02:47:35.651Z,74.9388
2018-06-18T02:48:41.733Z,73.9321
2018-06-18T02:49:47.181Z,73.6811
2018-06-18T02:50:52.613Z,74.4341
2018-06-18T02:51:57.781Z,74.1831
2018-06-18T02:53:02.392Z,73.9321
2018-06-18T02:54:06.979Z,74.1831
2018-06-18T02:55:12.117Z,73.9321
2018-06-18T02:56:17.318Z,74.9388
2018-06-18T02:57:22.193Z,74.1831
2018-06-18T02:58:27.683Z,73.6811
2018-06-18T02:59:32.852Z,74.9388
2018-06-18T03:00:38.402Z,74.1831
2018-06-18T03:01:43.865Z,73.4301
2018-06-18T03:02:49.326Z,72.6743
2018-06-18T03:03:54.883Z,73.179
2018-06-18T03:05:00.330Z,72.7589
2018-06-18T03:06:04.932Z,73.179
2018-06-18T03:07:10.148Z,73.4301
2018-06-18T03:08:15.019Z,73.9321
2018-06-18T03:09:20.459Z,73.2609
2018-06-18T03:10:25.696Z,72.7589
2018-06-18T03:11:30.590Z,72.7589
2018-06-18T03:12:35.883Z,72.5079
2018-06-18T03:13:41.033Z,73.2609
2018-06-18T03:14:46.209Z,72.5079
2018-06-18T03:15:52.056Z,73.2609
2018-06-18T03:16:57.199Z,72.7589
2018-06-18T03:18:01.801Z,73.2609
2018-06-18T03:19:06.800Z,73.2609
2018-06-18T03:20:11.676Z,73.0099
2018-06-18T03:21:17.114Z,72.5079
2018-06-18T03:22:22.239Z,73.4301
2018-06-18T03:23:27.114Z,73.6811
2018-06-18T03:24:32.635Z,72.7589
2018-06-18T03:25:37.787Z,73.9321
2018-06-18T03:26:42.933Z,73.4301
2018-06-18T03:27:48.615Z,73.6811
2018-06-18T03:28:53.773Z,73.6811
2018-06-18T03:29:59.208Z,73.9321
2018-06-18T03:31:04.153Z,73.6811
2018-06-18T03:32:09.021Z,73.6811
2018-06-18T03:33:13.904Z,73.6811
2018-06-18T03:34:19.603Z,73.6811
2018-06-18T03:35:25.034Z,74.4341
2018-06-18T03:36:30.195Z,75.1898
2018-06-18T03:37:35.392Z,73.4301
2018-06-18T03:38:40.545Z,74.1831
2018-06-18T03:39:46.395Z,73.6811
2018-06-18T03:40:51.829Z,73.9321
2018-06-18T03:41:56.979Z,73.6811
2018-06-18T03:43:02.096Z,74.4341
2018-06-18T03:44:07.258Z,73.6811
2018-06-18T03:45:11.857Z,74.1831
2018-06-18T03:46:17.254Z,74.1831
2018-06-18T03:47:22.684Z,73.6811
2018-06-18T03:48:27.850Z,73.6811
2018-06-18T03:49:33.285Z,73.9321
2018-06-18T03:50:38.440Z,74.6878
2018-06-18T03:51:43.846Z,74.4341
2018-06-18T03:52:49.276Z,74.6878
2018-06-18T03:53:54.706Z,74.9388
2018-06-18T03:55:00.212Z,74.4341
2018-06-18T03:56:04.530Z,74.4341
2018-06-18T03:57:09.687Z,74.6878
2018-06-18T03:58:14.814Z,74.6878
2018-06-18T03:59:20.238Z,73.4301
2018-06-18T04:00:40.453Z,73.4301
2018-06-18T04:01:45.901Z,72.9254
2018-06-18T04:02:51.331Z,73.179
2018-06-18T04:03:56.736Z,73.6811
2018-06-18T04:05:02.180Z,73.4301
2018-06-18T04:06:07.348Z,73.6811
2018-06-18T04:07:12.760Z,73.6811
2018-06-18T04:08:18.209Z,73.6811
2018-06-18T04:09:23.697Z,73.4301
2018-06-18T04:10:29.292Z,73.6811
2018-06-18T04:11:33.915Z,73.4301
2018-06-18T04:12:39.322Z,73.4301
2018-06-18T04:13:44.762Z,73.6811
2018-06-18T04:14:49.909Z,73.9321
2018-06-18T04:15:55.462Z,73.9321
2018-06-18T04:17:00.899Z,73.4301
2018-06-18T04:18:06.333Z,74.1831
2018-06-18T04:19:12.114Z,73.6811
2018-06-18T04:20:17.268Z,74.1831
2018-06-18T04:21:22.438Z,73.4301
2018-06-18T04:22:27.940Z,73.9321
2018-06-18T04:23:33.090Z,73.4301
2018-06-18T04:24:39.099Z,73.6811
2018-06-18T04:25:44.519Z,74.1831
2018-06-18T04:26:49.961Z,74.1831
2018-06-18T04:27:55.105Z,74.1831
2018-06-18T04:29:00.536Z,73.179
2018-06-18T04:30:05.412Z,73.6811
2018-06-18T04:31:10.140Z,73.179
2018-06-18T04:32:15.018Z,73.179
2018-06-18T04:33:20.177Z,73.6811
2018-06-18T04:34:25.296Z,74.1831
2018-06-18T04:35:29.873Z,74.6878
2018-06-18T04:36:35.002Z,73.179
2018-06-18T04:37:40.486Z,73.9321
2018-06-18T04:38:45.808Z,74.1831
2018-06-18T04:39:51.316Z,73.179
2018-06-18T04:40:56.193Z,73.6811
2018-06-18T04:42:01.336Z,73.4301
2018-06-18T04:43:06.093Z,74.4341
2018-06-18T04:44:11.260Z,73.9321
2018-06-18T04:45:16.701Z,73.9321
2018-06-18T04:46:22.480Z,74.4341
2018-06-18T04:47:27.368Z,73.9321
2018-06-18T04:48:32.874Z,74.4341
2018-06-18T04:49:38.305Z,74.1831
2018-06-18T04:50:43.469Z,74.8543
2018-06-18T04:51:48.775Z,74.1831
2018-06-18T04:52:54.232Z,74.8543
2018-06-18T04:53:59.710Z,73.6811
2018-06-18T04:55:04.686Z,73.4301
2018-06-18T04:56:09.834Z,73.4301
2018-06-18T04:57:14.982Z,73.9321
2018-06-18T04:58:20.671Z,73.179
2018-06-18T04:59:25.845Z,73.4301
2018-06-18T05:00:30.846Z,73.179
2018-06-18T05:01:36.299Z,73.9321
2018-06-18T05:02:41.483Z,74.4341
2018-06-18T05:03:46.593Z,73.6811
2018-06-18T05:04:52.031Z,74.1831
2018-06-18T05:05:56.916Z,73.4301
2018-06-18T05:07:02.327Z,74.1831
2018-06-18T05:08:06.942Z,73.6811
2018-06-18T05:09:11.533Z,73.9321
2018-06-18T05:10:16.946Z,73.6811
2018-06-18T05:11:22.132Z,73.4301
2018-06-18T05:12:27.842Z,73.6811
2018-06-18T05:13:33.273Z,73.9321
2018-06-18T05:14:38.712Z,72.9254
2018-06-18T05:15:43.849Z,73.179
2018-06-18T05:16:49.280Z,72.6743
2018-06-18T05:17:54.719Z,72.9254
2018-06-18T05:18:59.879Z,72.9254
2018-06-18T05:20:04.746Z,72.9254
2018-06-18T05:21:10.203Z,73.4301
2018-06-18T05:22:15.608Z,73.179
2018-06-18T05:23:21.042Z,73.6811
2018-06-18T05:24:41.469Z,72.6743
2018-06-18T05:25:46.356Z,72.9254
2018-06-18T05:26:51.798Z,72.4233
2018-06-18T05:27:57.578Z,71.9213
2018-06-18T05:29:01.886Z,72.1723
2018-06-18T05:30:06.529Z,72.1723
2018-06-18T05:31:12.329Z,71.9213
2018-06-18T05:32:17.490Z,72.1723
2018-06-18T05:33:22.936Z,72.4233
2018-06-18T05:34:28.693Z,71.5012
2018-06-18T05:35:34.124Z,71.9213
2018-06-18T05:36:39.912Z,71.5012
2018-06-18T05:37:44.794Z,71.2501
2018-06-18T05:38:50.225Z,71.9213
2018-06-18T05:39:56.156Z,71.5012
2018-06-18T05:41:01.595Z,72.1723
2018-06-18T05:42:05.647Z,72.1723
2018-06-18T05:43:10.776Z,72.4233
2018-06-18T05:44:16.223Z,71.6703
2018-06-18T05:45:21.410Z,72.1723
2018-06-18T05:46:27.568Z,71.9213
2018-06-18T05:47:33.009Z,71.6703
2018-06-18T05:48:38.514Z,72.1723
2018-06-18T05:49:43.947Z,72.4233
2018-06-18T05:50:49.104Z,71.6703
2018-06-18T05:51:54.509Z,70.9991
2018-06-18T05:52:59.674Z,70.9991
2018-06-18T05:54:04.571Z,71.5012
2018-06-18T05:55:10.265Z,70.579
2018-06-18T05:56:15.410Z,71.2501
2018-06-18T05:57:20.571Z,70.83
2018-06-18T05:58:26.142Z,70.9991
2018-06-18T05:59:31.364Z,69.8259
2018-06-18T06:00:37.054Z,70.328
2018-06-18T06:01:42.205Z,70.328
2018-06-18T06:02:47.671Z,70.83
2018-06-18T06:03:52.787Z,70.83
2018-06-18T06:04:58.228Z,70.9991
2018-06-18T06:06:03.554Z,70.579
2018-06-18T06:07:08.499Z,69.8259
2018-06-18T06:08:13.653Z,70.077
2018-06-18T06:09:19.084Z,70.077
2018-06-18T06:10:24.937Z,70.83
2018-06-18T06:11:30.093Z,70.077
2018-06-18T06:12:34.684Z,70.579
2018-06-18T06:13:40.115Z,70.9991
2018-06-18T06:14:45.282Z,70.83
2018-06-18T06:15:50.521Z,70.9991
2018-06-18T06:16:56.370Z,70.579
2018-06-18T06:18:01.771Z,70.579
2018-06-18T06:19:07.456Z,70.83
2018-06-18T06:20:12.326Z,70.579
2018-06-18T06:21:17.485Z,71.4166
2018-06-18T06:22:23.296Z,70.83
2018-06-18T06:23:28.483Z,70.83
2018-06-18T06:24:34.264Z,70.83
2018-06-18T06:25:39.418Z,71.2501
2018-06-18T06:26:44.601Z,70.83
2018-06-18T06:27:50.323Z,70.83
2018-06-18T06:28:55.756Z,70.579
2018-06-18T06:30:00.911Z,71.2501
2018-06-18T06:31:06.313Z,71.6703
2018-06-18T06:32:11.179Z,71.6703
2018-06-18T06:33:16.055Z,70.9991
2018-06-18T06:34:21.451Z,70.9991
2018-06-18T06:35:26.056Z,71.9213
2018-06-18T06:36:31.466Z,70.9991
2018-06-18T06:37:36.933Z,71.6703
2018-06-18T06:38:41.823Z,70.9991
2018-06-18T06:39:47.505Z,70.579
2018-06-18T06:40:52.673Z,71.9213
2018-06-18T06:41:58.117Z,71.2501
2018-06-18T06:43:03.238Z,70.579
2018-06-18T06:44:08.123Z,71.2501
2018-06-18T06:45:12.713Z,70.9991
2018-06-18T06:46:18.111Z,70.83
2018-06-18T06:47:23.265Z,70.579
2018-06-18T06:48:29.162Z,70.9991
2018-06-18T06:49:34.305Z,70.328
2018-06-18T06:50:39.461Z,70.328
2018-06-18T06:51:44.678Z,70.077
2018-06-18T06:52:50.109Z,70.579
2018-06-18T06:53:54.978Z,69.5749
2018-06-18T06:55:00.961Z,70.579
2018-06-18T06:56:05.551Z,69.8259
2018-06-18T06:57:10.441Z,70.83
2018-06-18T06:58:15.558Z,70.077
2018-06-18T06:59:20.427Z,70.077
2018-06-18T07:00:24.176Z,68.8192
2018-06-18T07:01:29.327Z,69.8259
2018-06-18T07:02:34.470Z,69.5749
2018-06-18T07:03:40.028Z,69.5749
2018-06-18T07:04:45.110Z,69.0702
2018-06-18T07:05:50.541Z,69.3239
2018-06-18T07:06:55.849Z,69.3239
2018-06-18T07:08:01.186Z,70.077
2018-06-18T07:09:06.120Z,69.0702
2018-06-18T07:10:11.523Z,69.3239
2018-06-18T07:11:16.389Z,69.3239
2018-06-18T07:12:21.829Z,69.0702
2018-06-18T07:13:27.896Z,69.0702
2018-06-18T07:14:32.969Z,68.4017
2018-06-18T07:15:38.749Z,68.8192
2018-06-18T07:16:44.042Z,68.8192
2018-06-18T07:17:49.195Z,69.0702
2018-06-18T07:18:54.319Z,69.0702
2018-06-18T07:19:59.961Z,68.1507
2018-06-18T07:21:04.841Z,68.5682
2018-06-18T07:22:09.991Z,67.897
2018-06-18T07:23:15.438Z,68.8192
2018-06-18T07:24:20.622Z,68.8192
2018-06-18T07:25:26.147Z,68.5682
2018-06-18T07:26:31.485Z,69.8259
2018-06-18T07:27:36.890Z,69.3239
2018-06-18T07:28:42.360Z,69.0702
2018-06-18T07:29:47.427Z,69.3239
2018-06-18T07:30:53.047Z,69.3239
2018-06-18T07:31:58.576Z,69.5749
2018-06-18T07:33:03.726Z,69.8259
2018-06-18T07:34:08.984Z,69.3239
2018-06-18T07:35:14.139Z,69.0702
2018-06-18T07:36:19.319Z,68.8192
2018-06-18T07:37:25.125Z,69.3239
2018-06-18T07:38:30.046Z,69.0702
2018-06-18T07:39:35.539Z,68.4017
2018-06-18T07:40:40.398Z,68.8192
2018-06-18T07:41:45.560Z,68.1507
2018-06-18T07:42:51.005Z,68.4017
2018-06-18T07:43:56.592Z,68.5682
2018-06-18T07:45:01.747Z,68.5682
2018-06-18T07:46:07.156Z,69.3239
2018-06-18T07:47:12.033Z,69.3239
2018-06-18T07:48:16.926Z,69.5749
2018-06-18T07:49:22.355Z,69.3239
2018-06-18T07:50:27.263Z,69.5749
2018-06-18T07:51:33.200Z,69.3239
2018-06-18T07:52:38.230Z,69.3239
2018-06-18T07:53:43.388Z,69.0702
2018-06-18T07:54:48.888Z,68.8192
2018-06-18T07:55:54.336Z,67.646
2018-06-18T07:56:59.621Z,68.8192
2018-06-18T07:58:05.415Z,68.1507
2018-06-18T07:59:10.284Z,68.1507
2018-06-18T08:00:15.429Z,68.1507
2018-06-18T08:01:20.577Z,68.8192
2018-06-18T08:02:25.647Z,69.5749
2018-06-18T08:03:31.382Z,68.5682
2018-06-18T08:04:36.575Z,68.3172
2018-06-18T08:05:41.740Z,68.5682
2018-06-18T08:06:47.149Z,69.0702
2018-06-18T08:07:52.581Z,68.1507
2018-06-18T08:08:57.733Z,68.5682
2018-06-18T08:10:02.628Z,68.8192
2018-06-18T08:11:08.084Z,69.0702
2018-06-18T08:12:13.243Z,69.3239
2018-06-18T08:13:18.772Z,69.3239
2018-06-18T08:14:23.658Z,69.3239
2018-06-18T08:15:29.118Z,69.0702
2018-06-18T08:16:34.278Z,69.0702
2018-06-18T08:17:39.769Z,68.5682
2018-06-18T08:18:45.553Z,68.1507
2018-06-18T08:19:49.867Z,67.897
2018-06-18T08:20:55.022Z,68.3172
2018-06-18T08:22:00.834Z,68.3172
2018-06-18T08:23:05.983Z,67.897
2018-06-18T08:24:11.141Z,68.5682
2018-06-18T08:25:16.474Z,69.0702
2018-06-18T08:26:21.910Z,68.3172
2018-06-18T08:27:27.022Z,68.5682
2018-06-18T08:28:31.917Z,67.897
2018-06-18T08:29:36.785Z,67.646
2018-06-18T08:30:42.340Z,68.5682
2018-06-18T08:31:47.493Z,67.897
2018-06-18T08:32:52.073Z,68.5682
2018-06-18T08:33:57.470Z,68.5682
2018-06-18T08:35:02.069Z,68.3172
2018-06-18T08:36:06.942Z,68.8192
2018-06-18T08:37:12.343Z,67.897
2018-06-18T08:38:17.924Z,68.3172
2018-06-18T08:39:23.089Z,68.5682
2018-06-18T08:40:29.134Z,67.897
2018-06-18T08:41:34.011Z,67.897
2018-06-18T08:42:39.796Z,67.646
2018-06-18T08:43:44.948Z,67.897
2018-06-18T08:44:49.835Z,68.3172
2018-06-18T08:45:55.568Z,68.5682
2018-06-18T08:47:00.766Z,68.3172
2018-06-18T08:48:05.624Z,69.3239
2018-06-18T08:49:11.158Z,68.3172
2018-06-18T08:50:16.461Z,68.3172
2018-06-18T08:51:21.902Z,68.8192
2018-06-18T08:52:27.457Z,68.5682
2018-06-18T08:53:32.600Z,68.0661
2018-06-18T08:54:37.742Z,68.0661
2018-06-18T08:55:42.893Z,68.3172
2018-06-18T08:56:48.336Z,68.0661
2018-06-18T08:57:53.943Z,69.0702
2018-06-18T08:58:59.156Z,68.5682
2018-06-18T09:00:04.019Z,68.5682
2018-06-18T09:01:09.593Z,68.5682
2018-06-18T09:02:14.741Z,68.3172
2018-06-18T09:03:19.975Z,68.3172
2018-06-18T09:04:25.109Z,69.0702
2018-06-18T09:05:29.743Z,68.8192
2018-06-18T09:06:35.049Z,68.8192
2018-06-18T09:07:40.273Z,68.8192
2018-06-18T09:08:45.427Z,68.5682
2018-06-18T09:09:50.583Z,68.8192
2018-06-18T09:10:55.756Z,68.8192
2018-06-18T09:12:00.635Z,68.8192
2018-06-18T09:13:05.892Z,69.0702
2018-06-18T09:14:10.968Z,68.5682
2018-06-18T09:15:16.117Z,68.8192
2018-06-18T09:16:21.529Z,68.8192
2018-06-18T09:17:26.395Z,68.8192
2018-06-18T09:18:31.939Z,69.3239
2018-06-18T09:19:37.381Z,69.3239
2018-06-18T09:20:42.836Z,69.3239
2018-06-18T09:21:48.521Z,69.8259
2018-06-18T09:22:53.672Z,69.8259
2018-06-18T09:23:59.100Z,69.5749
2018-06-18T09:25:04.360Z,69.3239
2018-06-18T09:26:08.953Z,69.3239
2018-06-18T09:27:14.401Z,69.5749
2018-06-18T09:28:20.084Z,69.8259
2018-06-18T09:29:24.685Z,70.2434
2018-06-18T09:30:29.534Z,69.8259
2018-06-18T09:31:34.405Z,70.2434
2018-06-18T09:32:40.495Z,70.4971
2018-06-18T09:33:46.405Z,70.2434
2018-06-18T09:34:51.562Z,69.3239
2018-06-18T09:35:57.024Z,69.3239
2018-06-18T09:37:02.135Z,68.8192
2018-06-18T09:38:07.016Z,69.8259
2018-06-18T09:39:11.898Z,69.5749
2018-06-18T09:40:17.427Z,69.5749
2018-06-18T09:41:23.404Z,69.0702
2018-06-18T09:42:28.530Z,69.3239
2018-06-18T09:43:33.986Z,69.0702
2018-06-18T09:44:39.455Z,70.4971
2018-06-18T09:45:44.421Z,69.3239
2018-06-18T09:46:49.323Z,69.9924
2018-06-18T09:47:54.483Z,69.3239
2018-06-18T09:49:00.176Z,69.3239
2018-06-18T09:50:05.329Z,69.9924
2018-06-18T09:51:10.606Z,70.4971
2018-06-18T09:52:16.043Z,70.4971
2018-06-18T09:53:20.931Z,69.9924
2018-06-18T09:54:40.835Z,70.2434
2018-06-18T09:55:46.175Z,69.9924
2018-06-18T09:56:51.076Z,69.7414
2018-06-18T09:57:56.194Z,70.4971
2018-06-18T09:59:01.423Z,70.9146
2018-06-18T10:00:06.292Z,69.5749
2018-06-18T10:01:11.411Z,70.4971
2018-06-18T10:02:16.692Z,70.2434
2018-06-18T10:03:22.227Z,70.2434
2018-06-18T10:04:42.378Z,70.7481
2018-06-18T10:05:47.281Z,69.9924
2018-06-18T10:06:52.628Z,69.7414
2018-06-18T10:07:57.784Z,71.1656
2018-06-18T10:09:02.664Z,70.2434
2018-06-18T10:10:07.798Z,71.1656
2018-06-18T10:11:13.246Z,69.7414
2018-06-18T10:12:18.408Z,69.7414
2018-06-18T10:13:23.922Z,70.7481
2018-06-18T10:14:28.894Z,69.4903
2018-06-18T10:15:34.538Z,70.2434
2018-06-18T10:16:40.374Z,69.9924
2018-06-18T10:17:45.815Z,70.7481
2018-06-18T10:18:51.361Z,69.4903
2018-06-18T10:19:56.242Z,69.3239
2018-06-18T10:21:01.403Z,69.9924
2018-06-18T10:22:06.385Z,69.3239
2018-06-18T10:23:11.531Z,69.7414
2018-06-18T10:24:17.299Z,69.7414
2018-06-18T10:25:23.282Z,69.3239
2018-06-18T10:26:28.146Z,69.7414
2018-06-18T10:27:33.587Z,69.7414
2018-06-18T10:28:38.470Z,69.4903
2018-06-18T10:29:43.869Z,70.2434
2018-06-18T10:30:49.263Z,69.3239
2018-06-18T10:31:54.716Z,69.7414
2018-06-18T10:32:59.871Z,69.7414
2018-06-18T10:34:04.724Z,70.2434
2018-06-18T10:35:09.881Z,69.7414
2018-06-18T10:36:14.479Z,69.3239
2018-06-18T10:37:19.880Z,69.7414
2018-06-18T10:38:25.314Z,69.4903
2018-06-18T10:39:30.723Z,69.4903
2018-06-18T10:40:35.904Z,69.4903
2018-06-18T10:41:41.069Z,69.7414
2018-06-18T10:42:46.474Z,69.9924
2018-06-18T10:43:51.923Z,69.3239
2018-06-18T10:44:57.357Z,70.2434
2018-06-18T10:46:02.765Z,70.4971
2018-06-18T10:47:08.301Z,69.4903
2018-06-18T10:48:13.666Z,69.7414
2018-06-18T10:49:19.062Z,69.9924
2018-06-18T10:50:24.538Z,69.9924
2018-06-18T10:51:30.535Z,69.4903
2018-06-18T10:52:36.181Z,69.9924
2018-06-18T10:53:41.615Z,69.0702
2018-06-18T10:54:46.834Z,69.3239
2018-06-18T10:55:52.010Z,69.7414
2018-06-18T10:56:57.649Z,69.0702
2018-06-18T10:58:03.079Z,70.2434
2018-06-18T10:59:07.960Z,70.7481
2018-06-18T11:00:13.403Z,70.4971
2018-06-18T11:01:18.371Z,70.7481
2018-06-18T11:02:22.963Z,70.9146
2018-06-18T11:03:27.918Z,70.4971
2018-06-18T11:04:33.372Z,69.9924
2018-06-18T11:05:38.876Z,70.2434
2018-06-18T11:06:44.357Z,70.9146
2018-06-18T11:07:49.226Z,70.9146
2018-06-18T11:08:54.428Z,70.2434
2018-06-18T11:09:59.389Z,69.7414
2018-06-18T11:11:04.203Z,70.2434
2018-06-18T11:12:09.646Z,71.4166
2018-06-18T11:13:14.773Z,70.9146
2018-06-18T11:14:19.995Z,70.7481
2018-06-18T11:15:26.250Z,70.7481
2018-06-18T11:16:32.649Z,71.4166
2018-06-18T11:17:38.546Z,71.6703
2018-06-18T11:18:44.290Z,71.1656
2018-06-18T11:19:49.448Z,71.4166
2018-06-18T11:20:54.887Z,70.9146
2018-06-18T11:22:00.411Z,71.4166
2018-06-18T11:23:05.580Z,70.7481
2018-06-18T11:24:10.730Z,71.1656
2018-06-18T11:25:16.590Z,71.4166
2018-06-18T11:26:22.100Z,70.4971
2018-06-18T11:27:27.680Z,70.7481
2018-06-18T11:28:33.218Z,70.2434
2018-06-18T11:29:38.205Z,69.9924
2018-06-18T11:30:43.430Z,71.1656
2018-06-18T11:31:48.314Z,69.7414
2018-06-18T11:32:53.227Z,70.4971
2018-06-18T11:33:58.743Z,69.9924
2018-06-18T11:35:03.886Z,69.9924
2018-06-18T11:36:09.044Z,70.2434
2018-06-18T11:37:14.761Z,70.2434
2018-06-18T11:38:19.924Z,69.9924
2018-06-18T11:39:27.720Z,70.4971
2018-06-18T11:40:32.361Z,70.2434
2018-06-18T11:41:37.720Z,70.9146
2018-06-18T11:42:43.033Z,70.7481
2018-06-18T11:43:48.705Z,69.2393
2018-06-18T11:44:53.588Z,69.2393
2018-06-18T11:45:58.901Z,70.7481
2018-06-18T11:47:03.491Z,70.4971
2018-06-18T11:48:08.769Z,70.4971
2018-06-18T11:49:13.803Z,69.9924
2018-06-18T11:50:19.334Z,69.3239
2018-06-18T11:51:40.162Z,69.9924
2018-06-18T11:52:45.319Z,70.4971
2018-06-18T11:53:50.641Z,70.9146
2018-06-18T11:54:56.331Z,70.9146
2018-06-18T11:56:01.583Z,70.2434
2018-06-18T11:57:05.887Z,70.7481
2018-06-18T11:58:10.738Z,70.9146
2018-06-18T11:59:16.413Z,70.2434
2018-06-18T12:00:21.299Z,70.7481
2018-06-18T12:01:27.111Z,70.328
2018-06-18T12:02:32.777Z,71.1656
2018-06-18T12:03:38.314Z,70.077
2018-06-18T12:04:43.195Z,69.8259
2018-06-18T12:05:48.296Z,70.9146
2018-06-18T12:06:53.722Z,70.328
2018-06-18T12:07:58.885Z,70.077
2018-06-18T12:09:03.746Z,70.328
2018-06-18T12:10:09.205Z,70.7481
2018-06-18T12:11:14.070Z,71.6703
2018-06-18T12:12:18.947Z,70.9146
2018-06-18T12:13:24.856Z,71.4166
2018-06-18T12:14:29.729Z,70.579
2018-06-18T12:15:35.159Z,71.4166
2018-06-18T12:16:40.726Z,70.579
2018-06-18T12:17:46.215Z,71.1656
2018-06-18T12:18:51.635Z,71.1656
2018-06-18T12:19:56.783Z,70.9146
2018-06-18T12:21:01.677Z,71.1656
2018-06-18T12:22:06.620Z,70.328
2018-06-18T12:23:11.777Z,70.9146
2018-06-18T12:24:16.938Z,70.328
2018-06-18T12:25:22.477Z,71.1656
2018-06-18T12:26:28.111Z,70.579
2018-06-18T12:27:33.615Z,70.579
2018-06-18T12:28:39.138Z,71.9213
2018-06-18T12:29:44.569Z,71.1656
2018-06-18T12:30:50.184Z,70.579
2018-06-18T12:31:55.626Z,71.4166
2018-06-18T12:33:00.787Z,71.1656
2018-06-18T12:34:06.485Z,71.4166
2018-06-18T12:35:11.926Z,70.7481
2018-06-18T12:36:17.599Z,70.7481
2018-06-18T12:37:23.488Z,70.328
2018-06-18T12:38:28.637Z,71.1656
2018-06-18T12:39:34.474Z,70.9146
2018-06-18T12:40:39.405Z,70.7481
2018-06-18T12:41:44.719Z,70.9146
2018-06-18T12:42:50.065Z,70.579
2018-06-18T12:43:55.390Z,70.7481
2018-06-18T12:45:00.838Z,72.1723
2018-06-18T12:46:05.667Z,71.6703
2018-06-18T12:47:10.259Z,71.9213
2018-06-18T12:48:15.420Z,72.4233
2018-06-18T12:49:20.829Z,72.6743
2018-06-18T12:50:25.991Z,71.9213
2018-06-18T12:51:31.308Z,71.6703
2018-06-18T12:52:36.956Z,71.1656
2018-06-18T12:53:42.400Z,71.1656
2018-06-18T12:54:47.277Z,72.6743
2018-06-18T12:55:52.910Z,71.1656
2018-06-18T12:56:58.079Z,72.1723
2018-06-18T12:58:02.782Z,72.6743
2018-06-18T12:59:07.672Z,72.4233
2018-06-18T13:00:12.747Z,71.6703
2018-06-18T13:01:18.511Z,71.9213
2018-06-18T13:02:23.887Z,72.1723
2018-06-18T13:03:29.840Z,71.4166
2018-06-18T13:04:35.445Z,71.6703
2018-06-18T13:05:40.929Z,72.6743
2018-06-18T13:06:46.455Z,71.4166
2018-06-18T13:07:51.320Z,72.1723
2018-06-18T13:08:56.339Z,72.6743
2018-06-18T13:10:02.348Z,71.4166
2018-06-18T13:11:07.940Z,72.4233
2018-06-18T13:12:12.821Z,71.9213
2018-06-18T13:13:18.214Z,71.6703
2018-06-18T13:14:23.299Z,72.1723